sensor_id;sensor_type;location;lat;lon;timestamp;temperature;humidity
15239;DHT22;7722;53.274;9.500;2022-07-29T00:01:34;12.90;99.90
15239;DHT22;7722;53.274;9.500;2022-07-29T00:04:01;12.90;99.90
15239;DHT22;7722;53.274;9.500;2022-07-29T00:06:28;12.90;99.90
15239;DHT22;7722;53.274;9.500;2022-07-29T00:08:55;12.80;99.90
15239;DHT22;7722;53.274;9.500;2022-07-29T00:11:22;12.90;99.90
15239;DHT22;7722;53.274;9.500;2022-07-29T00:13:49;12.90;99.90
15239;DHT22;7722;53.274;9.500;2022-07-29T00:16:18;12.80;99.90
15239;DHT22;7722;53.274;9.500;2022-07-29T00:18:45;12.90;99.90
15239;DHT22;7722;53.274;9.500;2022-07-29T00:21:12;12.90;99.90
15239;DHT22;7722;53.274;9.500;2022-07-29T00:23:39;12.90;99.90
15239;DHT22;7722;53.274;9.500;2022-07-29T00:26:07;13.00;99.90
15239;DHT22;7722;53.274;9.500;2022-07-29T00:28:34;13.00;99.90
15239;DHT22;7722;53.274;9.500;2022-07-29T00:31:01;13.00;99.90
15239;DHT22;7722;53.274;9.500;2022-07-29T00:33:30;13.00;99.90
15239;DHT22;7722;53.274;9.500;2022-07-29T00:35:57;12.90;99.90
15239;DHT22;7722;53.274;9.500;2022-07-29T00:38:23;13.00;99.90
15239;DHT22;7722;53.274;9.500;2022-07-29T00:40:50;13.00;99.90
15239;DHT22;7722;53.274;9.500;2022-07-29T00:43:18;12.90;99.90
15239;DHT22;7722;53.274;9.500;2022-07-29T00:45:46;13.00;99.90
15239;DHT22;7722;53.274;9.500;2022-07-29T00:48:13;13.00;99.90
15239;DHT22;7722;53.274;9.500;2022-07-29T00:50:42;13.10;99.90
15239;DHT22;7722;53.274;9.500;2022-07-29T00:53:11;13.10;99.90
15239;DHT22;7722;53.274;9.500;2022-07-29T00:55:39;13.10;99.90
15239;DHT22;7722;53.274;9.500;2022-07-29T00:58:06;13.10;99.90
15239;DHT22;7722;53.274;9.500;2022-07-29T01:00:34;13.10;99.90
15239;DHT22;7722;53.274;9.500;2022-07-29T01:03:01;13.10;99.90
15239;DHT22;7722;53.274;9.500;2022-07-29T01:05:28;13.10;99.90
15239;DHT22;7722;53.274;9.500;2022-07-29T01:07:58;13.10;99.90
15239;DHT22;7722;53.274;9.500;2022-07-29T01:10:26;13.10;99.90
15239;DHT22;7722;53.274;9.500;2022-07-29T01:12:55;13.10;99.90
15239;DHT22;7722;53.274;9.500;2022-07-29T01:15:24;13.10;99.90
15239;DHT22;7722;53.274;9.500;2022-07-29T01:17:57;13.10;99.90
15239;DHT22;7722;53.274;9.500;2022-07-29T01:20:30;13.10;99.90
15239;DHT22;7722;53.274;9.500;2022-07-29T01:23:40;13.10;99.90
15239;DHT22;7722;53.274;9.500;2022-07-29T01:26:31;13.10;99.90
15239;DHT22;7722;53.274;9.500;2022-07-29T01:29:06;13.20;99.90
15239;DHT22;7722;53.274;9.500;2022-07-29T01:31:42;13.30;99.90
15239;DHT22;7722;53.274;9.500;2022-07-29T01:34:14;13.30;99.90
15239;DHT22;7722;53.274;9.500;2022-07-29T01:36:47;13.20;99.90
15239;DHT22;7722;53.274;9.500;2022-07-29T01:39:19;13.20;99.90
15239;DHT22;7722;53.274;9.500;2022-07-29T01:41:50;13.30;99.90
15239;DHT22;7722;53.274;9.500;2022-07-29T01:44:25;13.30;99.90
15239;DHT22;7722;53.274;9.500;2022-07-29T01:46:56;13.30;99.90
15239;DHT22;7722;53.274;9.500;2022-07-29T01:49:28;13.30;99.90
15239;DHT22;7722;53.274;9.500;2022-07-29T01:51:59;13.30;99.90
15239;DHT22;7722;53.274;9.500;2022-07-29T01:54:32;13.30;99.90
15239;DHT22;7722;53.274;9.500;2022-07-29T01:57:02;13.30;99.90
15239;DHT22;7722;53.274;9.500;2022-07-29T01:59:33;13.30;99.90
15239;DHT22;7722;53.274;9.500;2022-07-29T02:02:01;13.40;99.90
15239;DHT22;7722;53.274;9.500;2022-07-29T02:04:29;13.40;99.90
15239;DHT22;7722;53.274;9.500;2022-07-29T02:07:00;13.30;99.90
15239;DHT22;7722;53.274;9.500;2022-07-29T02:09:29;13.40;99.90
15239;DHT22;7722;53.274;9.500;2022-07-29T02:11:57;13.40;99.90
15239;DHT22;7722;53.274;9.500;2022-07-29T02:14:27;13.40;99.90
15239;DHT22;7722;53.274;9.500;2022-07-29T02:16:58;13.30;99.90
15239;DHT22;7722;53.274;9.500;2022-07-29T02:19:28;13.30;99.90
15239;DHT22;7722;53.274;9.500;2022-07-29T02:21:56;13.30;99.90
15239;DHT22;7722;53.274;9.500;2022-07-29T02:24:25;13.30;99.90
15239;DHT22;7722;53.274;9.500;2022-07-29T02:26:54;13.20;99.90
15239;DHT22;7722;53.274;9.500;2022-07-29T02:29:25;13.20;99.90
15239;DHT22;7722;53.274;9.500;2022-07-29T02:31:55;13.20;99.90
15239;DHT22;7722;53.274;9.500;2022-07-29T02:34:24;13.10;99.90
15239;DHT22;7722;53.274;9.500;2022-07-29T02:36:52;13.20;99.90
15239;DHT22;7722;53.274;9.500;2022-07-29T02:39:21;13.20;99.90
15239;DHT22;7722;53.274;9.500;2022-07-29T02:41:51;13.20;99.90
15239;DHT22;7722;53.274;9.500;2022-07-29T02:44:21;13.20;99.90
15239;DHT22;7722;53.274;9.500;2022-07-29T02:46:50;13.20;99.90
15239;DHT22;7722;53.274;9.500;2022-07-29T02:49:29;13.30;99.90
15239;DHT22;7722;53.274;9.500;2022-07-29T02:52:00;13.20;99.90
15239;DHT22;7722;53.274;9.500;2022-07-29T02:54:32;13.20;99.90
15239;DHT22;7722;53.274;9.500;2022-07-29T02:57:04;13.10;99.90
15239;DHT22;7722;53.274;9.500;2022-07-29T02:59:34;13.10;99.90
15239;DHT22;7722;53.274;9.500;2022-07-29T03:02:04;13.10;99.90
15239;DHT22;7722;53.274;9.500;2022-07-29T03:04:34;13.10;99.90
15239;DHT22;7722;53.274;9.500;2022-07-29T03:07:02;13.10;99.90
15239;DHT22;7722;53.274;9.500;2022-07-29T03:09:30;13.20;99.90
15239;DHT22;7722;53.274;9.500;2022-07-29T03:11:58;13.20;99.90
15239;DHT22;7722;53.274;9.500;2022-07-29T03:14:26;13.20;99.90
15239;DHT22;7722;53.274;9.500;2022-07-29T03:16:54;13.20;99.90
15239;DHT22;7722;53.274;9.500;2022-07-29T03:19:21;13.20;99.90
15239;DHT22;7722;53.274;9.500;2022-07-29T03:21:50;13.10;99.90
15239;DHT22;7722;53.274;9.500;2022-07-29T03:24:32;13.10;99.90
15239;DHT22;7722;53.274;9.500;2022-07-29T03:26:59;13.20;99.90
15239;DHT22;7722;53.274;9.500;2022-07-29T03:29:27;13.10;99.90
15239;DHT22;7722;53.274;9.500;2022-07-29T03:31:55;13.10;99.90
15239;DHT22;7722;53.274;9.500;2022-07-29T03:34:22;13.10;99.90
15239;DHT22;7722;53.274;9.500;2022-07-29T03:36:50;13.10;99.90
15239;DHT22;7722;53.274;9.500;2022-07-29T03:39:23;13.10;99.90
15239;DHT22;7722;53.274;9.500;2022-07-29T03:41:55;13.10;99.90
15239;DHT22;7722;53.274;9.500;2022-07-29T03:44:24;13.10;99.90
15239;DHT22;7722;53.274;9.500;2022-07-29T03:46:55;13.10;99.90
15239;DHT22;7722;53.274;9.500;2022-07-29T03:49:26;13.10;99.90
15239;DHT22;7722;53.274;9.500;2022-07-29T03:51:55;13.10;99.90
15239;DHT22;7722;53.274;9.500;2022-07-29T03:54:22;13.20;99.90
15239;DHT22;7722;53.274;9.500;2022-07-29T03:56:50;13.20;99.90
15239;DHT22;7722;53.274;9.500;2022-07-29T03:59:20;13.20;99.90
15239;DHT22;7722;53.274;9.500;2022-07-29T04:01:48;13.20;99.90
15239;DHT22;7722;53.274;9.500;2022-07-29T04:04:15;13.20;99.90
15239;DHT22;7722;53.274;9.500;2022-07-29T04:06:44;13.30;99.90
15239;DHT22;7722;53.274;9.500;2022-07-29T04:09:13;13.30;99.90
15239;DHT22;7722;53.274;9.500;2022-07-29T04:11:41;13.30;99.90
15239;DHT22;7722;53.274;9.500;2022-07-29T04:14:08;13.40;99.90
15239;DHT22;7722;53.274;9.500;2022-07-29T04:16:35;13.40;99.90
15239;DHT22;7722;53.274;9.500;2022-07-29T04:19:02;13.40;99.90
15239;DHT22;7722;53.274;9.500;2022-07-29T04:21:29;13.40;99.90
15239;DHT22;7722;53.274;9.500;2022-07-29T04:23:56;13.50;99.90
15239;DHT22;7722;53.274;9.500;2022-07-29T04:26:25;13.50;99.90
15239;DHT22;7722;53.274;9.500;2022-07-29T04:28:52;13.50;99.90
15239;DHT22;7722;53.274;9.500;2022-07-29T04:31:19;13.50;99.90
15239;DHT22;7722;53.274;9.500;2022-07-29T04:33:46;13.50;99.90
15239;DHT22;7722;53.274;9.500;2022-07-29T04:36:13;13.50;99.90
15239;DHT22;7722;53.274;9.500;2022-07-29T04:38:40;13.50;99.90
15239;DHT22;7722;53.274;9.500;2022-07-29T04:41:07;13.60;99.90
15239;DHT22;7722;53.274;9.500;2022-07-29T04:43:36;13.60;99.90
15239;DHT22;7722;53.274;9.500;2022-07-29T04:46:05;13.60;99.90
15239;DHT22;7722;53.274;9.500;2022-07-29T04:48:32;13.70;99.90
15239;DHT22;7722;53.274;9.500;2022-07-29T04:50:59;13.70;99.90
15239;DHT22;7722;53.274;9.500;2022-07-29T04:53:26;13.70;99.90
15239;DHT22;7722;53.274;9.500;2022-07-29T04:55:54;13.70;99.90
15239;DHT22;7722;53.274;9.500;2022-07-29T04:58:21;13.80;99.90
15239;DHT22;7722;53.274;9.500;2022-07-29T05:00:50;13.80;99.90
15239;DHT22;7722;53.274;9.500;2022-07-29T05:03:18;13.80;99.90
15239;DHT22;7722;53.274;9.500;2022-07-29T05:05:45;13.80;99.90
15239;DHT22;7722;53.274;9.500;2022-07-29T05:08:12;13.80;99.90
15239;DHT22;7722;53.274;9.500;2022-07-29T05:10:40;13.90;99.90
15239;DHT22;7722;53.274;9.500;2022-07-29T05:13:07;14.10;99.90
15239;DHT22;7722;53.274;9.500;2022-07-29T05:15:34;14.20;99.90
15239;DHT22;7722;53.274;9.500;2022-07-29T05:18:03;14.20;99.90
15239;DHT22;7722;53.274;9.500;2022-07-29T05:20:31;14.30;99.90
15239;DHT22;7722;53.274;9.500;2022-07-29T05:23:00;14.30;99.90
15239;DHT22;7722;53.274;9.500;2022-07-29T05:25:29;14.40;99.90
15239;DHT22;7722;53.274;9.500;2022-07-29T05:27:56;14.50;99.90
15239;DHT22;7722;53.274;9.500;2022-07-29T05:30:24;14.50;99.90
15239;DHT22;7722;53.274;9.500;2022-07-29T05:32:51;14.60;99.90
15239;DHT22;7722;53.274;9.500;2022-07-29T05:35:19;14.60;99.90
15239;DHT22;7722;53.274;9.500;2022-07-29T05:37:46;14.60;99.90
15239;DHT22;7722;53.274;9.500;2022-07-29T05:40:13;14.70;99.90
15239;DHT22;7722;53.274;9.500;2022-07-29T05:42:41;14.70;99.90
15239;DHT22;7722;53.274;9.500;2022-07-29T05:45:08;14.70;99.90
15239;DHT22;7722;53.274;9.500;2022-07-29T05:47:36;14.80;99.90
15239;DHT22;7722;53.274;9.500;2022-07-29T05:50:03;14.80;99.90
15239;DHT22;7722;53.274;9.500;2022-07-29T05:52:32;14.90;99.90
15239;DHT22;7722;53.274;9.500;2022-07-29T05:54:59;15.10;99.90
15239;DHT22;7722;53.274;9.500;2022-07-29T05:57:29;15.20;99.90
15239;DHT22;7722;53.274;9.500;2022-07-29T05:59:57;15.20;99.90
15239;DHT22;7722;53.274;9.500;2022-07-29T06:02:24;15.30;99.90
15239;DHT22;7722;53.274;9.500;2022-07-29T06:04:51;15.40;99.90
15239;DHT22;7722;53.274;9.500;2022-07-29T06:07:19;15.50;99.90
15239;DHT22;7722;53.274;9.500;2022-07-29T06:09:47;15.60;99.90
15239;DHT22;7722;53.274;9.500;2022-07-29T06:12:14;15.70;99.90
15239;DHT22;7722;53.274;9.500;2022-07-29T06:14:41;15.90;99.90
15239;DHT22;7722;53.274;9.500;2022-07-29T06:17:08;15.90;99.90
15239;DHT22;7722;53.274;9.500;2022-07-29T06:19:37;16.00;99.90
15239;DHT22;7722;53.274;9.500;2022-07-29T06:22:04;16.10;99.90
15239;DHT22;7722;53.274;9.500;2022-07-29T06:24:31;16.10;99.90
15239;DHT22;7722;53.274;9.500;2022-07-29T06:27:00;16.10;99.90
15239;DHT22;7722;53.274;9.500;2022-07-29T06:29:27;16.20;99.90
15239;DHT22;7722;53.274;9.500;2022-07-29T06:31:54;16.20;99.90
15239;DHT22;7722;53.274;9.500;2022-07-29T06:34:22;16.20;99.90
15239;DHT22;7722;53.274;9.500;2022-07-29T06:36:49;16.10;99.90
15239;DHT22;7722;53.274;9.500;2022-07-29T06:39:16;16.40;99.90
15239;DHT22;7722;53.274;9.500;2022-07-29T06:41:46;16.40;99.90
15239;DHT22;7722;53.274;9.500;2022-07-29T06:44:16;16.30;99.90
15239;DHT22;7722;53.274;9.500;2022-07-29T06:46:43;16.40;99.90
15239;DHT22;7722;53.274;9.500;2022-07-29T06:49:12;16.40;99.90
15239;DHT22;7722;53.274;9.500;2022-07-29T06:51:39;16.50;99.90
15239;DHT22;7722;53.274;9.500;2022-07-29T06:54:06;16.70;99.90
15239;DHT22;7722;53.274;9.500;2022-07-29T06:56:35;16.90;99.90
15239;DHT22;7722;53.274;9.500;2022-07-29T06:59:03;17.00;99.90
15239;DHT22;7722;53.274;9.500;2022-07-29T07:01:31;16.90;99.90
15239;DHT22;7722;53.274;9.500;2022-07-29T07:03:58;16.90;99.90
15239;DHT22;7722;53.274;9.500;2022-07-29T07:06:26;17.00;99.90
15239;DHT22;7722;53.274;9.500;2022-07-29T07:08:53;17.10;99.90
15239;DHT22;7722;53.274;9.500;2022-07-29T07:11:20;17.10;99.90
15239;DHT22;7722;53.274;9.500;2022-07-29T07:13:47;17.50;99.90
15239;DHT22;7722;53.274;9.500;2022-07-29T07:16:15;17.40;99.90
15239;DHT22;7722;53.274;9.500;2022-07-29T07:18:43;17.50;99.90
15239;DHT22;7722;53.274;9.500;2022-07-29T07:21:11;17.50;99.90
15239;DHT22;7722;53.274;9.500;2022-07-29T07:23:38;17.50;99.90
15239;DHT22;7722;53.274;9.500;2022-07-29T07:26:05;17.60;99.90
15239;DHT22;7722;53.274;9.500;2022-07-29T07:28:32;17.80;99.90
15239;DHT22;7722;53.274;9.500;2022-07-29T07:30:59;17.90;99.90
15239;DHT22;7722;53.274;9.500;2022-07-29T07:33:26;18.00;99.90
15239;DHT22;7722;53.274;9.500;2022-07-29T07:35:55;18.00;99.90
15239;DHT22;7722;53.274;9.500;2022-07-29T07:38:22;18.10;99.90
15239;DHT22;7722;53.274;9.500;2022-07-29T07:40:49;18.00;99.90
15239;DHT22;7722;53.274;9.500;2022-07-29T07:43:16;18.10;99.90
15239;DHT22;7722;53.274;9.500;2022-07-29T07:45:43;18.30;99.90
15239;DHT22;7722;53.274;9.500;2022-07-29T07:48:10;18.30;99.90
15239;DHT22;7722;53.274;9.500;2022-07-29T07:50:37;18.10;99.90
15239;DHT22;7722;53.274;9.500;2022-07-29T07:53:06;18.30;99.90
15239;DHT22;7722;53.274;9.500;2022-07-29T07:55:33;18.60;99.90
15239;DHT22;7722;53.274;9.500;2022-07-29T07:58:00;18.70;99.90
15239;DHT22;7722;53.274;9.500;2022-07-29T08:00:27;18.70;99.90
15239;DHT22;7722;53.274;9.500;2022-07-29T08:02:54;18.70;99.90
15239;DHT22;7722;53.274;9.500;2022-07-29T08:05:21;18.80;99.90
15239;DHT22;7722;53.274;9.500;2022-07-29T08:07:49;19.30;99.90
15239;DHT22;7722;53.274;9.500;2022-07-29T08:10:19;19.30;99.90
15239;DHT22;7722;53.274;9.500;2022-07-29T08:13:03;19.10;99.90
15239;DHT22;7722;53.274;9.500;2022-07-29T08:15:30;19.30;99.90
15239;DHT22;7722;53.274;9.500;2022-07-29T08:17:57;19.70;99.90
15239;DHT22;7722;53.274;9.500;2022-07-29T08:20:24;19.50;99.90
15239;DHT22;7722;53.274;9.500;2022-07-29T08:22:52;19.50;99.90
15239;DHT22;7722;53.274;9.500;2022-07-29T08:25:21;19.50;99.90
15239;DHT22;7722;53.274;9.500;2022-07-29T08:27:48;19.60;99.90
15239;DHT22;7722;53.274;9.500;2022-07-29T08:30:15;19.80;99.90
15239;DHT22;7722;53.274;9.500;2022-07-29T08:32:43;20.00;98.70
15239;DHT22;7722;53.274;9.500;2022-07-29T08:35:10;20.10;99.10
15239;DHT22;7722;53.274;9.500;2022-07-29T08:37:37;19.90;99.20
15239;DHT22;7722;53.274;9.500;2022-07-29T08:40:05;20.40;98.40
15239;DHT22;7722;53.274;9.500;2022-07-29T08:42:34;20.20;99.30
15239;DHT22;7722;53.274;9.500;2022-07-29T08:45:02;20.40;98.60
15239;DHT22;7722;53.274;9.500;2022-07-29T08:47:29;20.70;97.70
15239;DHT22;7722;53.274;9.500;2022-07-29T08:49:57;20.50;97.60
15239;DHT22;7722;53.274;9.500;2022-07-29T08:52:25;20.60;97.50
15239;DHT22;7722;53.274;9.500;2022-07-29T08:54:53;20.90;97.60
15239;DHT22;7722;53.274;9.500;2022-07-29T08:57:21;21.20;97.30
15239;DHT22;7722;53.274;9.500;2022-07-29T08:59:50;21.60;96.40
15239;DHT22;7722;53.274;9.500;2022-07-29T09:02:20;22.00;95.60
15239;DHT22;7722;53.274;9.500;2022-07-29T09:04:48;22.50;94.80
15239;DHT22;7722;53.274;9.500;2022-07-29T09:07:16;22.80;95.40
15239;DHT22;7722;53.274;9.500;2022-07-29T09:09:44;23.70;93.30
15239;DHT22;7722;53.274;9.500;2022-07-29T09:12:12;23.70;93.40
15239;DHT22;7722;53.274;9.500;2022-07-29T09:14:40;23.70;91.90
15239;DHT22;7722;53.274;9.500;2022-07-29T09:17:08;23.70;92.70
15239;DHT22;7722;53.274;9.500;2022-07-29T09:19:36;23.60;92.20
15239;DHT22;7722;53.274;9.500;2022-07-29T09:22:05;23.70;91.70
15239;DHT22;7722;53.274;9.500;2022-07-29T09:24:40;23.50;92.30
15239;DHT22;7722;53.274;9.500;2022-07-29T09:27:18;23.10;92.40
15239;DHT22;7722;53.274;9.500;2022-07-29T09:29:46;22.80;92.30
15239;DHT22;7722;53.274;9.500;2022-07-29T09:32:15;23.60;91.10
15239;DHT22;7722;53.274;9.500;2022-07-29T09:34:42;24.10;90.50
15239;DHT22;7722;53.274;9.500;2022-07-29T09:37:09;24.30;90.00
15239;DHT22;7722;53.274;9.500;2022-07-29T09:39:38;23.70;90.00
15239;DHT22;7722;53.274;9.500;2022-07-29T09:42:11;23.50;90.00
15239;DHT22;7722;53.274;9.500;2022-07-29T09:44:44;23.40;90.10
15239;DHT22;7722;53.274;9.500;2022-07-29T09:47:11;23.20;90.10
15239;DHT22;7722;53.274;9.500;2022-07-29T09:49:55;23.30;90.00
15239;DHT22;7722;53.274;9.500;2022-07-29T09:52:24;23.10;90.00
15239;DHT22;7722;53.274;9.500;2022-07-29T09:54:51;23.30;90.20
15239;DHT22;7722;53.274;9.500;2022-07-29T09:57:25;23.20;89.60
15239;DHT22;7722;53.274;9.500;2022-07-29T10:00:00;23.10;90.40
15239;DHT22;7722;53.274;9.500;2022-07-29T10:02:29;23.40;89.70
15239;DHT22;7722;53.274;9.500;2022-07-29T10:04:59;24.00;90.50
15239;DHT22;7722;53.274;9.500;2022-07-29T10:07:26;24.40;87.50
15239;DHT22;7722;53.274;9.500;2022-07-29T10:09:54;23.90;87.10
15239;DHT22;7722;53.274;9.500;2022-07-29T10:12:22;24.20;86.20
15239;DHT22;7722;53.274;9.500;2022-07-29T10:14:50;24.50;85.80
15239;DHT22;7722;53.274;9.500;2022-07-29T10:17:17;24.90;84.70
15239;DHT22;7722;53.274;9.500;2022-07-29T10:19:45;25.40;84.10
15239;DHT22;7722;53.274;9.500;2022-07-29T10:22:14;25.00;84.40
15239;DHT22;7722;53.274;9.500;2022-07-29T10:24:41;25.10;83.90
15239;DHT22;7722;53.274;9.500;2022-07-29T10:27:09;25.40;82.30
15239;DHT22;7722;53.274;9.500;2022-07-29T10:29:36;25.20;81.60
15239;DHT22;7722;53.274;9.500;2022-07-29T10:32:21;24.80;82.90
15239;DHT22;7722;53.274;9.500;2022-07-29T10:35:01;25.00;81.70
15239;DHT22;7722;53.274;9.500;2022-07-29T10:37:46;25.20;81.20
15239;DHT22;7722;53.274;9.500;2022-07-29T10:40:28;25.10;80.80
15239;DHT22;7722;53.274;9.500;2022-07-29T10:43:19;24.50;80.70
15239;DHT22;7722;53.274;9.500;2022-07-29T10:45:49;24.70;82.90
15239;DHT22;7722;53.274;9.500;2022-07-29T10:48:21;25.10;81.70
15239;DHT22;7722;53.274;9.500;2022-07-29T10:50:53;25.50;80.00
15239;DHT22;7722;53.274;9.500;2022-07-29T10:53:22;25.50;81.60
15239;DHT22;7722;53.274;9.500;2022-07-29T10:55:51;25.50;80.20
15239;DHT22;7722;53.274;9.500;2022-07-29T10:58:20;25.10;80.90
15239;DHT22;7722;53.274;9.500;2022-07-29T11:00:49;24.80;80.90
15239;DHT22;7722;53.274;9.500;2022-07-29T11:03:44;25.10;81.20
15239;DHT22;7722;53.274;9.500;2022-07-29T11:06:12;25.40;79.40
15239;DHT22;7722;53.274;9.500;2022-07-29T11:08:41;25.90;78.40
15239;DHT22;7722;53.274;9.500;2022-07-29T11:11:36;26.70;78.70
15239;DHT22;7722;53.274;9.500;2022-07-29T11:14:07;26.80;74.70
15239;DHT22;7722;53.274;9.500;2022-07-29T11:16:58;26.60;76.10
15239;DHT22;7722;53.274;9.500;2022-07-29T11:19:27;26.00;74.70
15239;DHT22;7722;53.274;9.500;2022-07-29T11:21:55;25.90;77.70
15239;DHT22;7722;53.274;9.500;2022-07-29T11:24:24;25.70;77.30
15239;DHT22;7722;53.274;9.500;2022-07-29T11:27:10;25.20;77.20
15239;DHT22;7722;53.274;9.500;2022-07-29T11:29:40;25.00;78.20
15239;DHT22;7722;53.274;9.500;2022-07-29T11:32:14;25.10;79.00
15239;DHT22;7722;53.274;9.500;2022-07-29T11:34:43;25.30;78.10
15239;DHT22;7722;53.274;9.500;2022-07-29T11:37:18;25.40;77.50
15239;DHT22;7722;53.274;9.500;2022-07-29T11:42:38;25.80;77.50
15239;DHT22;7722;53.274;9.500;2022-07-29T11:45:09;25.90;76.60
15239;DHT22;7722;53.274;9.500;2022-07-29T11:47:40;26.10;76.20
15239;DHT22;7722;53.274;9.500;2022-07-29T11:50:11;26.10;75.30
15239;DHT22;7722;53.274;9.500;2022-07-29T11:52:40;26.10;74.50
15239;DHT22;7722;53.274;9.500;2022-07-29T11:55:14;26.10;77.20
15239;DHT22;7722;53.274;9.500;2022-07-29T11:57:48;25.90;77.60
15239;DHT22;7722;53.274;9.500;2022-07-29T12:00:28;26.30;77.80
15239;DHT22;7722;53.274;9.500;2022-07-29T12:02:55;26.70;76.40
15239;DHT22;7722;53.274;9.500;2022-07-29T12:05:34;26.40;75.60
15239;DHT22;7722;53.274;9.500;2022-07-29T12:08:08;26.20;74.70
15239;DHT22;7722;53.274;9.500;2022-07-29T12:10:38;26.20;75.30
15239;DHT22;7722;53.274;9.500;2022-07-29T12:13:05;26.10;73.60
15239;DHT22;7722;53.274;9.500;2022-07-29T12:15:33;25.80;74.10
15239;DHT22;7722;53.274;9.500;2022-07-29T12:18:10;25.70;74.20
15239;DHT22;7722;53.274;9.500;2022-07-29T12:20:37;25.50;74.30
15239;DHT22;7722;53.274;9.500;2022-07-29T12:23:08;25.50;75.90
15239;DHT22;7722;53.274;9.500;2022-07-29T12:25:40;25.50;74.90
15239;DHT22;7722;53.274;9.500;2022-07-29T12:28:09;25.50;75.00
15239;DHT22;7722;53.274;9.500;2022-07-29T12:30:42;26.00;74.20
15239;DHT22;7722;53.274;9.500;2022-07-29T12:33:15;26.10;73.40
15239;DHT22;7722;53.274;9.500;2022-07-29T12:35:44;26.00;74.40
15239;DHT22;7722;53.274;9.500;2022-07-29T12:38:13;26.30;75.80
15239;DHT22;7722;53.274;9.500;2022-07-29T12:40:43;26.50;74.00
15239;DHT22;7722;53.274;9.500;2022-07-29T12:43:12;26.80;72.60
15239;DHT22;7722;53.274;9.500;2022-07-29T12:45:41;27.30;70.80
15239;DHT22;7722;53.274;9.500;2022-07-29T12:48:09;28.00;69.90
15239;DHT22;7722;53.274;9.500;2022-07-29T12:50:37;28.00;71.00
15239;DHT22;7722;53.274;9.500;2022-07-29T12:53:11;28.00;70.30
15239;DHT22;7722;53.274;9.500;2022-07-29T12:55:44;27.90;67.60
15239;DHT22;7722;53.274;9.500;2022-07-29T12:58:25;28.50;67.00
15239;DHT22;7722;53.274;9.500;2022-07-29T13:01:03;28.50;66.50
15239;DHT22;7722;53.274;9.500;2022-07-29T13:03:45;28.90;65.90
15239;DHT22;7722;53.274;9.500;2022-07-29T13:06:35;28.50;66.80
15239;DHT22;7722;53.274;9.500;2022-07-29T13:09:05;28.50;64.90
15239;DHT22;7722;53.274;9.500;2022-07-29T13:11:35;29.00;65.40
15239;DHT22;7722;53.274;9.500;2022-07-29T13:14:03;29.60;64.40
15239;DHT22;7722;53.274;9.500;2022-07-29T13:16:30;30.10;61.40
15239;DHT22;7722;53.274;9.500;2022-07-29T13:19:18;29.50;61.40
15239;DHT22;7722;53.274;9.500;2022-07-29T13:21:45;29.90;60.80
15239;DHT22;7722;53.274;9.500;2022-07-29T13:24:12;29.70;61.10
15239;DHT22;7722;53.274;9.500;2022-07-29T13:26:41;29.10;61.80
15239;DHT22;7722;53.274;9.500;2022-07-29T13:29:08;28.60;60.90
15239;DHT22;7722;53.274;9.500;2022-07-29T13:31:35;29.10;61.10
15239;DHT22;7722;53.274;9.500;2022-07-29T13:34:02;28.70;62.00
15239;DHT22;7722;53.274;9.500;2022-07-29T13:36:30;28.80;61.80
15239;DHT22;7722;53.274;9.500;2022-07-29T13:38:57;28.60;61.80
15239;DHT22;7722;53.274;9.500;2022-07-29T13:41:26;28.40;62.10
15239;DHT22;7722;53.274;9.500;2022-07-29T13:43:55;28.70;61.80
15239;DHT22;7722;53.274;9.500;2022-07-29T13:46:22;28.30;62.20
15239;DHT22;7722;53.274;9.500;2022-07-29T13:48:49;28.30;62.60
15239;DHT22;7722;53.274;9.500;2022-07-29T13:51:17;28.20;62.20
15239;DHT22;7722;53.274;9.500;2022-07-29T13:53:44;27.80;62.20
15239;DHT22;7722;53.274;9.500;2022-07-29T13:56:11;28.20;63.80
15239;DHT22;7722;53.274;9.500;2022-07-29T13:58:38;28.30;62.70
15239;DHT22;7722;53.274;9.500;2022-07-29T14:01:06;28.50;61.30
15239;DHT22;7722;53.274;9.500;2022-07-29T14:03:34;28.60;63.70
15239;DHT22;7722;53.274;9.500;2022-07-29T14:06:03;28.60;62.90
15239;DHT22;7722;53.274;9.500;2022-07-29T14:08:30;28.60;62.50
15239;DHT22;7722;53.274;9.500;2022-07-29T14:10:58;28.10;61.10
15239;DHT22;7722;53.274;9.500;2022-07-29T14:13:25;28.20;61.70
15239;DHT22;7722;53.274;9.500;2022-07-29T14:15:52;27.50;62.20
15239;DHT22;7722;53.274;9.500;2022-07-29T14:18:21;27.50;61.50
15239;DHT22;7722;53.274;9.500;2022-07-29T14:20:48;27.50;61.60
15239;DHT22;7722;53.274;9.500;2022-07-29T14:23:16;27.50;62.90
15239;DHT22;7722;53.274;9.500;2022-07-29T14:25:43;27.60;61.00
15239;DHT22;7722;53.274;9.500;2022-07-29T14:28:10;27.80;61.20
15239;DHT22;7722;53.274;9.500;2022-07-29T14:30:38;28.20;60.60
15239;DHT22;7722;53.274;9.500;2022-07-29T14:33:05;29.20;57.30
15239;DHT22;7722;53.274;9.500;2022-07-29T14:35:35;29.40;58.80
15239;DHT22;7722;53.274;9.500;2022-07-29T14:38:02;30.50;56.40
15239;DHT22;7722;53.274;9.500;2022-07-29T14:40:29;30.80;55.50
15239;DHT22;7722;53.274;9.500;2022-07-29T14:42:56;30.40;56.20
15239;DHT22;7722;53.274;9.500;2022-07-29T14:45:23;29.80;55.80
15239;DHT22;7722;53.274;9.500;2022-07-29T14:47:50;30.00;56.10
15239;DHT22;7722;53.274;9.500;2022-07-29T14:50:17;29.30;56.70
15239;DHT22;7722;53.274;9.500;2022-07-29T14:52:46;29.00;57.00
15239;DHT22;7722;53.274;9.500;2022-07-29T14:55:13;29.00;56.80
15239;DHT22;7722;53.274;9.500;2022-07-29T14:57:40;29.10;58.10
15239;DHT22;7722;53.274;9.500;2022-07-29T15:00:09;29.60;56.90
15239;DHT22;7722;53.274;9.500;2022-07-29T15:02:36;29.80;56.40
15239;DHT22;7722;53.274;9.500;2022-07-29T15:05:04;30.40;54.70
15239;DHT22;7722;53.274;9.500;2022-07-29T15:07:31;29.80;55.80
15239;DHT22;7722;53.274;9.500;2022-07-29T15:10:00;29.90;54.50
15239;DHT22;7722;53.274;9.500;2022-07-29T15:12:27;30.40;54.40
15239;DHT22;7722;53.274;9.500;2022-07-29T15:14:55;29.60;55.00
15239;DHT22;7722;53.274;9.500;2022-07-29T15:17:22;29.20;54.90
15239;DHT22;7722;53.274;9.500;2022-07-29T15:19:49;29.00;55.10
15239;DHT22;7722;53.274;9.500;2022-07-29T15:22:16;28.80;56.90
15239;DHT22;7722;53.274;9.500;2022-07-29T15:24:43;28.80;55.50
15239;DHT22;7722;53.274;9.500;2022-07-29T15:27:12;28.20;57.20
15239;DHT22;7722;53.274;9.500;2022-07-29T15:29:40;27.70;57.70
15239;DHT22;7722;53.274;9.500;2022-07-29T15:32:08;27.60;58.00
15239;DHT22;7722;53.274;9.500;2022-07-29T15:34:35;27.50;59.00
15239;DHT22;7722;53.274;9.500;2022-07-29T15:37:02;27.50;58.20
15239;DHT22;7722;53.274;9.500;2022-07-29T15:39:29;27.40;58.20
15239;DHT22;7722;53.274;9.500;2022-07-29T15:41:57;27.20;59.10
15239;DHT22;7722;53.274;9.500;2022-07-29T15:44:26;27.40;58.60
15239;DHT22;7722;53.274;9.500;2022-07-29T15:46:54;27.40;58.80
15239;DHT22;7722;53.274;9.500;2022-07-29T15:49:31;27.50;59.00
15239;DHT22;7722;53.274;9.500;2022-07-29T15:51:58;27.60;58.90
15239;DHT22;7722;53.274;9.500;2022-07-29T15:54:26;27.50;59.60
15239;DHT22;7722;53.274;9.500;2022-07-29T15:56:54;27.70;59.00
15239;DHT22;7722;53.274;9.500;2022-07-29T15:59:21;27.30;58.20
15239;DHT22;7722;53.274;9.500;2022-07-29T16:01:50;27.00;59.30